Time;durP1;ratioP1;P1;durP2;ratioP2;P2;SDS_P1;SDS_P2;PMS_P1;PMS_P2;Temp;Humidity;BMP_temperature;BMP_pressure;BME280_temperature;BME280_humidity;BME280_pressure;Samples;Min_cycle;Max_cycle;Signal;HPM_P1;HPM_P2
2023/05/20 00:00:22;;;;;;;5.60;3.20;;;13.60;93.70;;;;;;5074040;28;20451;-49
2023/05/20 00:02:50;;;;;;;20.53;4.20;;;13.10;93.60;;;;;;5074602;28;20472;-49
2023/05/20 00:05:16;;;;;;;7.03;3.83;;;13.60;94.00;;;;;;5074321;28;20432;-51
2023/05/20 00:07:43;;;;;;;5.10;3.40;;;13.80;94.20;;;;;;5073596;28;20641;-49
2023/05/20 00:10:10;;;;;;;4.37;3.43;;;13.50;94.30;;;;;;5073115;28;20453;-49
2023/05/20 00:12:38;;;;;;;5.80;3.17;;;13.30;94.30;;;;;;5073375;28;20483;-48
2023/05/20 00:15:05;;;;;;;7.47;3.80;;;13.60;94.70;;;;;;5073347;28;20665;-49
2023/05/20 00:17:32;;;;;;;5.17;3.87;;;13.30;94.90;;;;;;5073399;28;20430;-49
2023/05/20 00:20:00;;;;;;;5.00;3.20;;;13.00;95.00;;;;;;5072887;28;20436;-49
2023/05/20 00:22:27;;;;;;;5.73;3.50;;;13.20;95.20;;;;;;5073435;28;20433;-49
2023/05/20 00:24:53;;;;;;;4.23;3.20;;;12.60;95.30;;;;;;5073275;28;20832;-49
2023/05/20 00:27:20;;;;;;;4.93;3.50;;;13.30;95.80;;;;;;5073401;28;20918;-50
2023/05/20 00:29:47;;;;;;;4.10;2.77;;;13.40;96.20;;;;;;5072594;28;20452;-50
2023/05/20 00:32:13;;;;;;;4.80;3.23;;;13.00;96.10;;;;;;5055062;28;20566;-50
2023/05/20 00:34:40;;;;;;;15.73;3.40;;;12.90;96.30;;;;;;5073109;28;20428;-51
2023/05/20 00:37:09;;;;;;;5.10;3.50;;;12.70;96.50;;;;;;5055114;28;20435;-49
2023/05/20 00:39:35;;;;;;;5.20;3.50;;;12.90;96.90;;;;;;5054585;28;20521;-50
2023/05/20 00:42:02;;;;;;;4.93;3.40;;;13.00;97.20;;;;;;5073080;28;20809;-50
2023/05/20 00:44:29;;;;;;;4.77;3.27;;;13.00;97.30;;;;;;5054840;28;20527;-51
2023/05/20 00:46:56;;;;;;;4.37;3.50;;;12.70;97.40;;;;;;5073062;28;20445;-49
2023/05/20 00:49:22;;;;;;;7.73;4.70;;;12.30;97.50;;;;;;5054535;28;20482;-50
2023/05/20 00:51:50;;;;;;;6.20;4.10;;;13.10;98.20;;;;;;5072725;28;20465;-49
2023/05/20 00:54:18;;;;;;;5.40;3.90;;;13.20;98.40;;;;;;5072499;28;20440;-50
2023/05/20 00:56:45;;;;;;;5.73;4.63;;;13.20;98.60;;;;;;5073053;28;20432;-49
2023/05/20 00:59:12;;;;;;;6.33;4.30;;;13.20;98.90;;;;;;5072319;28;20459;-51
2023/05/20 01:01:39;;;;;;;5.40;3.77;;;12.20;98.50;;;;;;5073151;28;20443;-49
2023/05/20 01:04:06;;;;;;;5.60;4.37;;;12.70;99.00;;;;;;5072735;28;20438;-49
2023/05/20 01:06:32;;;;;;;6.70;4.47;;;12.70;99.40;;;;;;5054496;28;20442;-48
2023/05/20 01:08:59;;;;;;;6.20;4.87;;;12.70;99.60;;;;;;5071234;28;20834;-50
2023/05/20 01:11:33;;;;;;;6.90;4.07;;;12.90;99.90;;;;;;5072501;28;20415;-49
2023/05/20 01:14:05;;;;;;;4.47;3.60;;;12.60;99.90;;;;;;5054407;28;20973;-50
2023/05/20 01:16:33;;;;;;;4.90;4.30;;;12.90;99.90;;;;;;5054599;28;20451;-49
2023/05/20 01:19:02;;;;;;;6.97;4.90;;;12.80;99.90;;;;;;5071667;28;20430;-48
2023/05/20 01:21:31;;;;;;;6.37;4.13;;;12.60;99.90;;;;;;5054381;28;20463;-49
2023/05/20 01:24:00;;;;;;;4.13;3.70;;;12.50;99.90;;;;;;5054136;28;20452;-50
2023/05/20 01:26:27;;;;;;;4.20;3.60;;;13.30;99.90;;;;;;5072275;28;20432;-49
2023/05/20 01:28:56;;;;;;;6.13;4.00;;;12.70;99.90;;;;;;5053730;28;20479;-50
2023/05/20 01:31:25;;;;;;;5.63;4.30;;;12.10;99.90;;;;;;5072503;28;21044;-48
2023/05/20 01:33:56;;;;;;;5.53;3.87;;;12.40;99.90;;;;;;5054713;28;20459;-49
2023/05/20 01:36:25;;;;;;;6.60;4.87;;;12.30;99.90;;;;;;5072632;28;20430;-50
2023/05/20 01:38:54;;;;;;;6.43;3.90;;;11.90;99.90;;;;;;5054402;28;20530;-49
2023/05/20 01:41:23;;;;;;;7.40;4.97;;;12.30;99.90;;;;;;5054620;28;20446;-50
2023/05/20 01:43:50;;;;;;;5.77;4.40;;;12.70;99.90;;;;;;5054686;28;20426;-49
2023/05/20 01:46:17;;;;;;;5.20;4.03;;;12.70;99.90;;;;;;5054698;28;20576;-50
2023/05/20 01:48:44;;;;;;;7.27;4.10;;;12.60;99.90;;;;;;5071574;28;20488;-50
2023/05/20 01:51:10;;;;;;;5.70;5.10;;;12.30;99.90;;;;;;5071952;28;20446;-49
2023/05/20 01:53:37;;;;;;;7.37;3.70;;;12.30;99.90;;;;;;5053815;28;20452;-50
2023/05/20 01:56:05;;;;;;;5.63;4.50;;;12.20;99.90;;;;;;5053764;28;20454;-49
2023/05/20 01:58:33;;;;;;;5.97;4.33;;;12.40;99.90;;;;;;5071329;28;20583;-49
2023/05/20 02:01:00;;;;;;;6.63;4.40;;;12.40;99.90;;;;;;5053786;28;20472;-50
2023/05/20 02:03:27;;;;;;;7.30;4.83;;;12.60;99.90;;;;;;5053766;28;20452;-49
2023/05/20 02:05:54;;;;;;;6.53;4.50;;;12.40;99.90;;;;;;5053750;28;20453;-50
2023/05/20 02:08:22;;;;;;;6.67;4.40;;;12.40;99.90;;;;;;5071359;28;20405;-50
2023/05/20 02:10:49;;;;;;;9.90;5.10;;;12.50;99.90;;;;;;5071902;28;20420;-50
2023/05/20 02:13:15;;;;;;;7.13;4.20;;;12.40;99.90;;;;;;5071575;28;20871;-49
2023/05/20 02:15:44;;;;;;;7.03;4.53;;;12.10;99.90;;;;;;5071707;28;20428;-49
2023/05/20 02:18:11;;;;;;;4.73;3.77;;;12.20;99.90;;;;;;5071245;28;20437;-49
2023/05/20 02:20:38;;;;;;;6.27;4.57;;;12.20;99.90;;;;;;5054959;28;20580;-50
2023/05/20 02:23:05;;;;;;;7.17;5.17;;;12.10;99.90;;;;;;5057636;28;20697;-48
2023/05/20 02:25:32;;;;;;;8.27;4.90;;;12.20;99.90;;;;;;5057697;28;20502;-48
2023/05/20 02:27:58;;;;;;;6.50;4.70;;;12.10;99.90;;;;;;5075419;28;20410;-49
2023/05/20 02:30:27;;;;;;;9.50;4.63;;;12.30;99.90;;;;;;5057115;28;20463;-49
2023/05/20 02:32:56;;;;;;;7.50;4.40;;;12.40;99.90;;;;;;5075236;28;20974;-50
2023/05/20 02:35:23;;;;;;;8.40;4.53;;;12.30;99.90;;;;;;5057523;28;20538;-51
2023/05/20 02:37:50;;;;;;;10.80;5.17;;;12.00;99.90;;;;;;5057355;28;20455;-50
2023/05/20 02:40:17;;;;;;;6.83;4.50;;;11.50;99.90;;;;;;5056794;28;20534;-49
2023/05/20 02:42:43;;;;;;;8.20;5.00;;;12.50;99.90;;;;;;5057258;28;20528;-49
2023/05/20 02:45:10;;;;;;;5.20;4.20;;;12.20;99.90;;;;;;5057189;28;20443;-50
2023/05/20 02:47:38;;;;;;;6.07;4.67;;;12.40;99.90;;;;;;5057315;28;20487;-49
2023/05/20 02:50:07;;;;;;;7.60;4.73;;;12.10;99.90;;;;;;5056781;28;20436;-49
2023/05/20 02:52:35;;;;;;;5.20;4.10;;;12.00;99.90;;;;;;5075016;28;20445;-48
2023/05/20 02:55:01;;;;;;;8.47;4.83;;;11.70;99.90;;;;;;5056951;28;20477;-49
2023/05/20 02:57:30;;;;;;;6.13;4.70;;;12.20;99.90;;;;;;5057362;28;20447;-48
2023/05/20 02:59:57;;;;;;;6.13;4.30;;;12.00;99.90;;;;;;5056483;28;20474;-49
2023/05/20 03:02:23;;;;;;;7.43;4.70;;;12.00;99.90;;;;;;5057112;28;20475;-49
2023/05/20 03:04:52;;;;;;;7.00;4.87;;;11.90;99.90;;;;;;5056868;28;20450;-50
2023/05/20 03:07:22;;;;;;;8.30;4.90;;;12.00;99.90;;;;;;5056702;28;20466;-49
2023/05/20 03:09:49;;;;;;;5.63;4.80;;;12.20;99.90;;;;;;5056329;28;20834;-50
2023/05/20 03:12:15;;;;;;;6.13;4.50;;;12.20;99.90;;;;;;5056694;28;20535;-51
2023/05/20 03:14:42;;;;;;;5.40;4.37;;;12.10;99.90;;;;;;5056371;28;20482;-49
2023/05/20 03:17:09;;;;;;;6.60;4.40;;;11.90;99.90;;;;;;5056464;28;20459;-49
2023/05/20 03:19:36;;;;;;;10.77;4.97;;;11.90;99.90;;;;;;5073910;28;20556;-50
2023/05/20 03:22:04;;;;;;;8.47;5.10;;;11.90;99.90;;;;;;5056487;28;20430;-50
2023/05/20 03:24:33;;;;;;;7.40;4.80;;;12.00;99.90;;;;;;5056545;28;20425;-48
2023/05/20 03:27:00;;;;;;;5.90;4.00;;;11.70;99.90;;;;;;5056502;28;20484;-49
2023/05/20 03:29:26;;;;;;;5.80;4.33;;;12.30;99.90;;;;;;5073860;28;20481;-49
2023/05/20 03:31:53;;;;;;;6.00;4.23;;;12.10;99.90;;;;;;5055238;28;20443;-49
2023/05/20 03:34:20;;;;;;;6.87;4.80;;;11.90;99.90;;;;;;5056292;28;20523;-53
2023/05/20 03:36:48;;;;;;;6.13;4.67;;;12.10;99.90;;;;;;5056370;28;20450;-49
2023/05/20 03:39:14;;;;;;;9.30;4.50;;;12.00;99.90;;;;;;5073690;28;20981;-49
2023/05/20 03:41:42;;;;;;;10.10;4.97;;;12.50;99.90;;;;;;5056165;28;20448;-49
2023/05/20 03:44:10;;;;;;;6.57;4.80;;;12.10;99.90;;;;;;5056121;28;20446;-49
2023/05/20 03:46:38;;;;;;;6.63;4.20;;;12.40;99.90;;;;;;5056042;28;20483;-49
2023/05/20 03:49:05;;;;;;;11.77;4.73;;;12.60;99.90;;;;;;5055370;28;20491;-50
2023/05/20 03:51:31;;;;;;;8.47;4.30;;;12.50;99.90;;;;;;5055982;28;21045;-49
2023/05/20 03:54:04;;;;;;;6.70;4.67;;;12.50;99.90;;;;;;5055731;28;20514;-48
2023/05/20 03:56:31;;;;;;;8.97;4.83;;;12.10;99.90;;;;;;5055685;28;20459;-49
2023/05/20 03:58:59;;;;;;;11.27;5.30;;;11.70;99.90;;;;;;5055462;28;21061;-49
2023/05/20 04:01:26;;;;;;;9.10;5.00;;;11.80;99.90;;;;;;5073941;28;20399;-49
2023/05/20 04:03:52;;;;;;;10.13;4.90;;;12.60;99.90;;;;;;5056011;28;20540;-48
2023/05/20 04:06:21;;;;;;;9.60;4.57;;;12.10;99.90;;;;;;5055512;28;20944;-50
2023/05/20 04:08:48;;;;;;;5.40;4.70;;;12.00;99.90;;;;;;5054987;28;20443;-49
2023/05/20 04:11:15;;;;;;;7.57;4.10;;;11.60;99.90;;;;;;5073755;28;20430;-50
2023/05/20 04:13:42;;;;;;;7.67;5.17;;;12.50;99.90;;;;;;5055791;28;21027;-49
2023/05/20 04:16:11;;;;;;;7.50;5.10;;;12.40;99.90;;;;;;5074007;28;20402;-48
2023/05/20 04:18:39;;;;;;;8.03;4.80;;;12.00;99.90;;;;;;5073479;28;20822;-50
2023/05/20 04:21:07;;;;;;;7.20;4.80;;;11.90;99.90;;;;;;5056223;28;20452;-49
2023/05/20 04:23:33;;;;;;;7.93;4.90;;;12.20;99.90;;;;;;5073936;28;20431;-50
2023/05/20 04:26:01;;;;;;;6.50;5.00;;;12.60;99.90;;;;;;5056425;28;20842;-50
2023/05/20 04:28:30;;;;;;;7.53;4.80;;;12.20;99.90;;;;;;5055710;28;20450;-49
2023/05/20 04:31:01;;;;;;;10.80;4.80;;;12.20;99.90;;;;;;5055587;28;20447;-48
2023/05/20 04:33:29;;;;;;;7.93;4.73;;;12.20;99.90;;;;;;5055411;28;20481;-49
2023/05/20 04:35:58;;;;;;;6.13;4.43;;;11.80;99.90;;;;;;5073055;28;20471;-49
2023/05/20 04:38:28;;;;;;;5.97;4.63;;;12.40;99.90;;;;;;5054775;28;20451;-49
2023/05/20 04:40:56;;;;;;;7.10;5.53;;;11.80;99.90;;;;;;5055247;28;20454;-49
2023/05/20 04:43:23;;;;;;;22.03;6.40;;;12.60;99.90;;;;;;5072480;28;20438;-49
2023/05/20 04:45:51;;;;;;;12.40;4.80;;;12.30;99.90;;;;;;5072883;28;20436;-49
2023/05/20 04:48:19;;;;;;;5.80;4.67;;;12.30;99.90;;;;;;5054747;28;20447;-49
2023/05/20 04:50:48;;;;;;;10.70;6.30;;;12.30;99.90;;;;;;5054803;28;20486;-49
2023/05/20 04:53:15;;;;;;;9.63;4.93;;;12.40;99.90;;;;;;5072560;28;20441;-50
2023/05/20 04:55:42;;;;;;;5.93;4.87;;;12.50;99.90;;;;;;5072627;28;20534;-49
2023/05/20 04:58:13;;;;;;;7.20;5.57;;;12.30;99.90;;;;;;5054295;28;21111;-50
2023/05/20 05:00:41;;;;;;;11.23;5.13;;;12.30;99.90;;;;;;5054655;28;20484;-51
2023/05/20 05:03:07;;;;;;;7.00;4.70;;;12.80;99.90;;;;;;5072726;28;20762;-50
2023/05/20 05:05:35;;;;;;;7.97;5.10;;;12.70;99.90;;;;;;5055320;28;20438;-48
2023/05/20 05:08:03;;;;;;;5.93;5.07;;;12.90;99.90;;;;;;5054997;28;20528;-49
2023/05/20 05:10:31;;;;;;;9.30;5.00;;;12.90;99.90;;;;;;5054514;28;20467;-49
2023/05/20 05:12:58;;;;;;;8.57;5.97;;;12.40;99.90;;;;;;5055090;28;20470;-49
2023/05/20 05:15:25;;;;;;;7.90;4.83;;;12.10;99.90;;;;;;5055849;28;20453;-49
2023/05/20 05:17:52;;;;;;;6.53;4.90;;;12.90;99.90;;;;;;5055354;28;20448;-50
2023/05/20 05:20:19;;;;;;;9.90;5.67;;;12.50;99.90;;;;;;5054503;28;20466;-50
2023/05/20 05:22:46;;;;;;;10.13;5.93;;;12.70;99.90;;;;;;5054640;28;20458;-49
2023/05/20 05:25:14;;;;;;;8.70;5.47;;;12.70;99.90;;;;;;5072485;28;20427;-50
2023/05/20 05:27:41;;;;;;;6.37;5.60;;;12.60;99.90;;;;;;5054557;28;20969;-50
2023/05/20 05:30:10;;;;;;;7.10;5.00;;;12.30;99.90;;;;;;5054255;28;20479;-48
2023/05/20 05:32:37;;;;;;;9.93;5.30;;;12.80;99.90;;;;;;5054778;28;20513;-48
2023/05/20 05:35:04;;;;;;;6.80;5.50;;;12.60;99.90;;;;;;5054520;28;20488;-49
2023/05/20 05:37:31;;;;;;;6.40;5.80;;;12.70;99.90;;;;;;5054879;28;20483;-49
2023/05/20 05:39:58;;;;;;;8.47;4.83;;;12.60;99.90;;;;;;5072589;28;20443;-49
2023/05/20 05:42:26;;;;;;;7.93;6.30;;;12.30;99.90;;;;;;5054921;28;20478;-49
2023/05/20 05:44:53;;;;;;;11.07;6.40;;;12.80;99.90;;;;;;5055388;28;20440;-50
2023/05/20 05:47:21;;;;;;;7.03;5.63;;;13.20;99.90;;;;;;5055351;28;20493;-50
2023/05/20 05:49:48;;;;;;;10.37;5.90;;;12.90;99.90;;;;;;5095277;22;20472;-47
2023/05/20 05:52:15;;;;;;;8.13;6.60;;;12.80;99.90;;;;;;5054288;28;20446;-48
2023/05/20 05:54:42;;;;;;;9.60;6.20;;;13.10;99.90;;;;;;5053472;28;20478;-46
2023/05/20 05:57:10;;;;;;;8.67;5.00;;;13.00;99.90;;;;;;5054508;28;20451;-46
2023/05/20 05:59:39;;;;;;;8.63;5.07;;;13.00;99.90;;;;;;5050030;28;20548;-47
2023/05/20 06:02:06;;;;;;;9.40;5.93;;;12.90;99.90;;;;;;5050454;28;20874;-47
2023/05/20 06:04:32;;;;;;;9.60;6.37;;;12.50;99.90;;;;;;5050332;28;20478;-46
2023/05/20 06:06:59;;;;;;;11.13;6.40;;;13.00;99.90;;;;;;5050333;28;20454;-46
2023/05/20 06:09:26;;;;;;;7.50;5.97;;;12.60;99.90;;;;;;5050003;28;20472;-47
2023/05/20 06:11:53;;;;;;;8.70;6.20;;;13.10;99.90;;;;;;5050420;28;20804;-46
2023/05/20 06:14:20;;;;;;;9.43;6.77;;;12.70;99.90;;;;;;5051984;28;20526;-47
2023/05/20 06:16:48;;;;;;;8.00;7.20;;;13.30;99.90;;;;;;5050185;28;20946;-47
2023/05/20 06:19:15;;;;;;;11.33;5.40;;;13.70;99.90;;;;;;5049657;28;20554;-47
2023/05/20 06:21:41;;;;;;;8.07;5.53;;;13.10;99.90;;;;;;5050460;28;20641;-46
2023/05/20 06:24:08;;;;;;;5.80;5.03;;;13.30;99.90;;;;;;5050380;28;20452;-48
2023/05/20 06:26:36;;;;;;;7.70;6.03;;;13.60;99.90;;;;;;5050052;28;20461;-48
2023/05/20 06:29:03;;;;;;;9.03;6.10;;;13.70;99.90;;;;;;5049696;28;20491;-46
2023/05/20 06:31:30;;;;;;;7.73;5.47;;;13.40;99.90;;;;;;5051365;28;20406;-47
2023/05/20 06:33:58;;;;;;;8.13;5.40;;;13.90;99.90;;;;;;5049845;28;20474;-47
2023/05/20 06:36:26;;;;;;;13.13;6.10;;;13.40;99.90;;;;;;5049942;28;20450;-46
2023/05/20 06:38:53;;;;;;;9.83;7.33;;;12.90;99.90;;;;;;5049771;28;20460;-46
2023/05/20 06:41:20;;;;;;;7.77;6.20;;;13.20;99.90;;;;;;5050255;28;20439;-47
2023/05/20 06:43:51;;;;;;;10.23;6.17;;;13.20;99.90;;;;;;5050377;28;20421;-46
2023/05/20 06:46:36;;;;;;;9.80;6.50;;;13.70;99.90;;;;;;5051984;28;20433;-47
2023/05/20 06:49:12;;;;;;;8.40;6.20;;;13.40;99.90;;;;;;5049563;28;20498;-47
2023/05/20 06:51:39;;;;;;;7.17;6.03;;;14.10;99.90;;;;;;5050367;28;20947;-47
2023/05/20 06:54:06;;;;;;;7.70;6.37;;;13.60;99.90;;;;;;5050055;28;20475;-47
2023/05/20 06:56:33;;;;;;;7.90;6.83;;;13.80;99.90;;;;;;5051302;28;20437;-47
2023/05/20 06:58:59;;;;;;;7.27;6.47;;;14.00;99.90;;;;;;5049636;28;20456;-47
2023/05/20 07:01:27;;;;;;;6.80;6.10;;;13.30;99.90;;;;;;5050421;28;20792;-47
2023/05/20 07:03:55;;;;;;;7.50;6.30;;;13.70;99.90;;;;;;5050783;28;20453;-47
2023/05/20 07:06:23;;;;;;;7.50;6.63;;;13.80;99.90;;;;;;5050241;28;20452;-47
2023/05/20 07:08:49;;;;;;;8.37;6.33;;;13.90;99.90;;;;;;5052789;28;20446;-47
2023/05/20 07:11:17;;;;;;;7.80;6.70;;;14.40;99.90;;;;;;5053657;28;20511;-47
2023/05/20 07:13:44;;;;;;;8.33;6.80;;;14.20;99.90;;;;;;5053417;28;20501;-47
2023/05/20 07:16:11;;;;;;;9.00;6.40;;;14.50;99.90;;;;;;5053208;28;20742;-47
2023/05/20 07:18:40;;;;;;;10.47;7.73;;;14.20;99.90;;;;;;5053532;28;20451;-46
2023/05/20 07:21:07;;;;;;;9.70;7.00;;;14.10;99.90;;;;;;5053675;28;21013;-47
2023/05/20 07:23:44;;;;;;;10.00;5.73;;;14.30;99.90;;;;;;5053445;28;20469;-47
2023/05/20 07:26:11;;;;;;;9.20;6.63;;;14.30;99.90;;;;;;5053429;28;20732;-46
2023/05/20 07:28:38;;;;;;;15.47;6.60;;;14.60;99.90;;;;;;5054113;28;20458;-46
2023/05/20 07:31:05;;;;;;;10.40;6.37;;;14.60;99.90;;;;;;5053972;28;20500;-47
2023/05/20 07:33:35;;;;;;;7.40;5.87;;;14.10;99.90;;;;;;5053822;28;20450;-47
2023/05/20 07:36:02;;;;;;;6.37;5.40;;;14.60;99.90;;;;;;5053546;28;20478;-48
2023/05/20 07:38:28;;;;;;;8.50;6.70;;;14.40;99.90;;;;;;5053802;28;20522;-47
2023/05/20 07:41:00;;;;;;;8.47;6.70;;;14.50;99.90;;;;;;5054041;28;20471;-46
2023/05/20 07:43:28;;;;;;;9.43;6.43;;;14.40;99.90;;;;;;5054327;28;20556;-46
2023/05/20 07:45:55;;;;;;;5.90;5.33;;;14.70;99.90;;;;;;5036409;28;20792;-45
2023/05/20 07:48:21;;;;;;;9.13;6.10;;;14.80;99.90;;;;;;5052515;28;20511;-48
2023/05/20 07:50:48;;;;;;;7.23;5.70;;;14.80;99.90;;;;;;5054104;28;20474;-48
2023/05/20 07:53:15;;;;;;;8.03;6.00;;;14.70;99.90;;;;;;5052733;28;20460;-47
2023/05/20 07:55:41;;;;;;;9.47;6.40;;;15.10;99.90;;;;;;5035704;28;20482;-46
2023/05/20 07:58:09;;;;;;;7.17;6.03;;;15.20;99.90;;;;;;5052268;28;20507;-48
2023/05/20 08:00:37;;;;;;;7.67;5.77;;;15.30;99.90;;;;;;5052657;28;20450;-47
2023/05/20 08:03:07;;;;;;;9.53;6.80;;;15.40;99.90;;;;;;5052305;28;20504;-47
2023/05/20 08:05:46;;;;;;;8.70;6.47;;;15.50;99.90;;;;;;5052386;28;20455;-46
2023/05/20 08:08:13;;;;;;;7.03;5.50;;;15.50;99.90;;;;;;5051966;28;20450;-47
2023/05/20 08:10:51;;;;;;;8.90;5.90;;;15.20;99.90;;;;;;5035580;28;20467;-47
2023/05/20 08:13:20;;;;;;;6.07;5.47;;;15.50;99.90;;;;;;5052293;28;20480;-48
2023/05/20 08:15:48;;;;;;;8.33;6.30;;;15.50;99.90;;;;;;5051902;28;20500;-47
2023/05/20 08:18:15;;;;;;;9.47;6.80;;;15.60;99.90;;;;;;5051453;28;20451;-48
2023/05/20 08:20:42;;;;;;;7.30;5.60;;;15.90;99.90;;;;;;5052275;28;20471;-47
2023/05/20 08:23:08;;;;;;;7.10;6.07;;;15.90;99.90;;;;;;5053234;28;20433;-46
2023/05/20 08:25:36;;;;;;;6.50;5.57;;;16.00;99.90;;;;;;5052016;28;20409;-47
2023/05/20 08:28:05;;;;;;;6.67;5.73;;;15.90;99.90;;;;;;5051886;28;20454;-48
2023/05/20 08:30:34;;;;;;;6.53;5.83;;;16.10;99.90;;;;;;5035371;28;20468;-47
2023/05/20 08:33:01;;;;;;;6.23;5.40;;;16.00;99.90;;;;;;5051633;28;20447;-48
2023/05/20 08:35:29;;;;;;;10.10;5.50;;;16.20;99.90;;;;;;5051462;28;21148;-46
2023/05/20 08:37:56;;;;;;;7.67;6.77;;;16.70;99.90;;;;;;5051091;28;20970;-47
2023/05/20 08:40:23;;;;;;;7.57;5.87;;;16.70;99.90;;;;;;5051850;28;20471;-46
2023/05/20 08:42:52;;;;;;;6.10;5.43;;;16.70;99.90;;;;;;5053128;28;20870;-47
2023/05/20 08:45:20;;;;;;;8.27;4.60;;;16.60;99.90;;;;;;5051355;28;20455;-46
2023/05/20 08:47:49;;;;;;;7.23;6.10;;;16.80;99.90;;;;;;5051276;28;20506;-46
2023/05/20 08:50:16;;;;;;;6.50;5.80;;;17.00;99.90;;;;;;5052501;28;20475;-47
2023/05/20 08:52:44;;;;;;;6.97;6.37;;;17.10;99.90;;;;;;5052830;28;20449;-47
2023/05/20 08:55:15;;;;;;;11.03;5.40;;;17.20;99.90;;;;;;5052541;28;20507;-46
2023/05/20 08:57:44;;;;;;;16.43;5.90;;;17.30;99.90;;;;;;5051176;28;20501;-47
2023/05/20 09:00:15;;;;;;;6.43;5.47;;;17.30;99.80;;;;;;5052110;28;20995;-47
2023/05/20 09:02:42;;;;;;;11.17;5.53;;;17.40;99.60;;;;;;5052537;28;20922;-47
2023/05/20 09:05:11;;;;;;;6.50;5.27;;;17.40;99.60;;;;;;5052247;28;20436;-47
2023/05/20 09:07:38;;;;;;;5.70;5.20;;;17.10;99.50;;;;;;5052125;28;20436;-47
2023/05/20 09:10:05;;;;;;;6.47;5.80;;;17.10;99.70;;;;;;5051704;28;20465;-49
2023/05/20 09:12:32;;;;;;;7.90;5.93;;;17.00;99.70;;;;;;5052278;28;20941;-48
2023/05/20 09:14:58;;;;;;;6.53;5.63;;;16.60;99.70;;;;;;5052203;28;20483;-48
2023/05/20 09:17:25;;;;;;;6.30;5.30;;;16.90;99.90;;;;;;5034288;28;20538;-46
2023/05/20 09:19:53;;;;;;;6.37;5.67;;;17.00;99.90;;;;;;5051771;28;20548;-46
2023/05/20 09:22:25;;;;;;;7.03;4.93;;;17.00;99.90;;;;;;5052070;28;20435;-46
2023/05/20 09:24:52;;;;;;;6.00;5.30;;;16.90;99.90;;;;;;5052005;28;20414;-47
2023/05/20 09:27:19;;;;;;;7.60;6.27;;;17.10;99.90;;;;;;5052066;28;20431;-48
2023/05/20 09:29:48;;;;;;;9.13;6.20;;;16.90;99.90;;;;;;5050648;28;20455;-47
2023/05/20 09:32:15;;;;;;;6.50;5.57;;;17.20;99.90;;;;;;5051808;28;20431;-48
2023/05/20 09:34:44;;;;;;;6.43;5.60;;;17.10;99.90;;;;;;5051552;28;20432;-47
2023/05/20 09:37:11;;;;;;;7.47;6.13;;;17.20;99.90;;;;;;5051444;28;20433;-48
2023/05/20 09:39:48;;;;;;;7.33;6.23;;;17.30;99.70;;;;;;5051329;28;20460;-47
2023/05/20 09:42:21;;;;;;;17.17;8.23;;;17.50;99.50;;;;;;5051666;28;20437;-47
2023/05/20 09:44:50;;;;;;;9.00;6.93;;;17.30;99.30;;;;;;5051786;28;20410;-47
2023/05/20 09:47:17;;;;;;;8.43;6.63;;;17.50;99.50;;;;;;5051464;28;20818;-49
2023/05/20 09:49:46;;;;;;;8.10;7.30;;;17.30;99.30;;;;;;5050901;28;20579;-47
2023/05/20 09:52:13;;;;;;;8.57;7.20;;;17.10;99.20;;;;;;5051422;28;20431;-46
2023/05/20 09:54:43;;;;;;;8.20;7.33;;;17.50;99.20;;;;;;5051491;28;20932;-47
2023/05/20 09:57:10;;;;;;;11.27;7.60;;;17.00;98.90;;;;;;5051335;28;20433;-47
2023/05/20 09:59:37;;;;;;;8.63;7.37;;;17.30;99.00;;;;;;5049972;28;20461;-47
2023/05/20 10:02:06;;;;;;;9.23;8.30;;;17.30;98.90;;;;;;5052156;28;20444;-48
2023/05/20 10:04:34;;;;;;;8.07;7.27;;;17.80;99.10;;;;;;5051627;28;20443;-47
2023/05/20 10:07:42;;;;;;;8.53;7.63;;;17.60;98.80;;;;;;5051529;28;20892;-47
2023/05/20 10:10:23;;;;;;;9.37;7.97;;;17.50;98.90;;;;;;5051420;28;20430;-46
2023/05/20 10:12:58;;;;;;;9.63;8.73;;;17.60;99.10;;;;;;5051779;28;20440;-47
2023/05/20 10:15:33;;;;;;;9.07;7.87;;;17.40;99.20;;;;;;5052345;28;20564;-46
2023/05/20 10:18:10;;;;;;;8.87;7.93;;;17.60;99.20;;;;;;5051715;28;20432;-49
2023/05/20 10:20:46;;;;;;;9.23;8.23;;;17.20;99.00;;;;;;5051633;28;20486;-48
2023/05/20 10:23:21;;;;;;;9.10;8.20;;;17.90;99.10;;;;;;5050410;28;20516;-47
2023/05/20 10:25:52;;;;;;;10.67;8.67;;;17.90;98.70;;;;;;5051359;28;20440;-47
2023/05/20 10:28:29;;;;;;;11.67;8.30;;;17.90;98.80;;;;;;5051215;28;20443;-48
2023/05/20 10:30:56;;;;;;;8.23;7.27;;;17.80;98.70;;;;;;5051508;28;20451;-46
2023/05/20 10:33:22;;;;;;;8.97;7.97;;;18.20;98.90;;;;;;5051288;28;20430;-47
2023/05/20 10:35:50;;;;;;;8.90;7.90;;;17.90;98.80;;;;;;5051487;28;20485;-48
2023/05/20 10:38:17;;;;;;;10.23;8.63;;;17.70;98.40;;;;;;5051309;28;20437;-47
2023/05/20 10:40:44;;;;;;;8.97;7.43;;;18.10;98.50;;;;;;5051602;28;20523;-49
2023/05/20 10:43:13;;;;;;;10.13;8.93;;;17.80;98.20;;;;;;5055552;28;20456;-47
2023/05/20 10:45:51;;;;;;;9.73;8.03;;;18.20;98.30;;;;;;5054965;28;20499;-48
2023/05/20 10:48:23;;;;;;;9.53;8.10;;;18.10;98.30;;;;;;5055000;28;20474;-47
2023/05/20 10:50:50;;;;;;;10.27;8.40;;;18.20;98.30;;;;;;5054944;28;20454;-47
2023/05/20 10:53:17;;;;;;;9.43;8.30;;;18.20;98.20;;;;;;5055397;28;20441;-48
2023/05/20 10:55:50;;;;;;;8.23;7.17;;;18.30;98.20;;;;;;5054983;28;20469;-47
2023/05/20 10:58:18;;;;;;;12.43;8.90;;;18.50;98.00;;;;;;5054644;28;20452;-47
2023/05/20 11:00:47;;;;;;;9.30;8.00;;;18.30;97.70;;;;;;5054958;28;20515;-46
2023/05/20 11:03:15;;;;;;;9.10;8.20;;;18.30;97.70;;;;;;5054939;28;20433;-48
2023/05/20 11:05:42;;;;;;;11.53;8.60;;;18.30;97.40;;;;;;5054608;28;20499;-48
2023/05/20 11:08:09;;;;;;;13.60;8.77;;;18.20;97.40;;;;;;5054294;28;20434;-47
2023/05/20 11:10:37;;;;;;;10.20;9.03;;;18.60;97.30;;;;;;5054417;28;20461;-47
2023/05/20 11:13:04;;;;;;;11.50;8.60;;;18.50;97.00;;;;;;5054302;28;20923;-48
2023/05/20 11:15:33;;;;;;;10.13;8.70;;;18.50;97.20;;;;;;5054442;28;21093;-48
2023/05/20 11:18:01;;;;;;;12.00;9.23;;;18.60;97.20;;;;;;5052780;28;20452;-47
2023/05/20 11:20:28;;;;;;;9.57;7.80;;;18.90;96.90;;;;;;5053578;28;20454;-48
2023/05/20 11:22:55;;;;;;;9.10;7.77;;;18.70;96.50;;;;;;5054669;28;20540;-47
2023/05/20 11:25:22;;;;;;;10.73;8.40;;;19.00;96.50;;;;;;5052870;28;20454;-47
2023/05/20 11:27:50;;;;;;;12.47;9.20;;;18.80;96.30;;;;;;5054136;28;20446;-47
2023/05/20 11:30:18;;;;;;;10.33;9.23;;;19.00;96.10;;;;;;5053996;28;20962;-47
2023/05/20 11:32:57;;;;;;;10.37;9.40;;;19.00;96.10;;;;;;5052636;28;20473;-48
2023/05/20 11:35:24;;;;;;;9.20;7.90;;;19.30;96.10;;;;;;5053271;28;20512;-48
2023/05/20 11:37:56;;;;;;;9.10;8.10;;;18.90;96.20;;;;;;5054000;28;20520;-47
2023/05/20 11:40:25;;;;;;;9.47;8.47;;;19.00;96.10;;;;;;5053508;28;20476;-48
2023/05/20 11:42:56;;;;;;;11.13;8.57;;;19.20;96.20;;;;;;5054102;28;20509;-48
2023/05/20 11:45:23;;;;;;;8.97;7.53;;;19.20;95.80;;;;;;5053814;28;20932;-47
2023/05/20 11:48:01;;;;;;;10.70;9.10;;;19.20;95.70;;;;;;5053570;28;20434;-49
2023/05/20 11:50:28;;;;;;;10.40;8.80;;;19.20;95.20;;;;;;5088278;22;20493;-49
2023/05/20 11:52:58;;;;;;;11.50;9.30;;;19.40;95.20;;;;;;5072803;28;20453;-49
2023/05/20 11:55:25;;;;;;;9.87;8.57;;;19.40;95.10;;;;;;5073270;28;20435;-48
2023/05/20 11:57:52;;;;;;;10.33;9.33;;;19.70;95.10;;;;;;5073106;28;20864;-49
2023/05/20 12:00:19;;;;;;;9.33;8.27;;;19.50;94.90;;;;;;5073223;28;20458;-48
2023/05/20 12:02:45;;;;;;;7.93;7.20;;;19.40;94.70;;;;;;5072738;28;20519;-48
2023/05/20 12:05:13;;;;;;;10.63;8.67;;;19.30;94.50;;;;;;5073014;28;20435;-50
2023/05/20 12:07:40;;;;;;;10.30;8.40;;;19.80;94.90;;;;;;5073000;28;20428;-50
2023/05/20 12:10:08;;;;;;;11.70;9.43;;;19.80;94.80;;;;;;5072709;28;20455;-49
2023/05/20 12:12:35;;;;;;;10.43;9.30;;;20.10;95.10;;;;;;5072849;28;20925;-49
2023/05/20 12:15:02;;;;;;;13.80;9.83;;;19.10;94.90;;;;;;5073552;28;20528;-50
2023/05/20 12:17:28;;;;;;;10.57;9.03;;;19.20;95.10;;;;;;5055759;28;20485;-50
2023/05/20 12:19:55;;;;;;;10.67;8.63;;;19.40;95.40;;;;;;5073336;28;20450;-49
2023/05/20 12:22:23;;;;;;;10.87;9.83;;;18.70;95.00;;;;;;5073367;28;20922;-49
2023/05/20 12:24:50;;;;;;;12.83;9.37;;;18.90;95.20;;;;;;5073250;28;20441;-49
2023/05/20 12:27:17;;;;;;;12.63;9.60;;;19.40;95.40;;;;;;5073086;28;20526;-48
2023/05/20 12:29:43;;;;;;;9.47;7.97;;;19.50;95.40;;;;;;5072754;28;20469;-49
2023/05/20 12:32:10;;;;;;;10.30;9.27;;;19.30;95.00;;;;;;5073365;28;20451;-49
2023/05/20 12:34:36;;;;;;;13.30;9.80;;;19.20;95.20;;;;;;5073276;28;20786;-49
2023/05/20 12:37:03;;;;;;;10.90;9.10;;;18.90;95.20;;;;;;5072951;28;20452;-50
2023/05/20 12:39:31;;;;;;;9.77;8.73;;;18.90;95.50;;;;;;5072274;28;20456;-49
2023/05/20 12:41:57;;;;;;;21.37;9.53;;;18.60;95.30;;;;;;5072663;28;20434;-49
2023/05/20 12:44:24;;;;;;;10.07;9.07;;;18.80;95.40;;;;;;5072846;28;20525;-49
2023/05/20 12:46:51;;;;;;;11.07;9.50;;;18.90;95.70;;;;;;5072825;28;20445;-51
2023/05/20 12:49:17;;;;;;;10.47;9.30;;;19.10;95.70;;;;;;5072015;28;20428;-50